Time;durP1;ratioP1;P1;durP2;ratioP2;P2;SDS_P1;SDS_P2;PMS_P1;PMS_P2;Temp;Humidity;BMP_temperature;BMP_pressure;BME280_temperature;BME280_humidity;BME280_pressure;Samples;Min_cycle;Max_cycle;Signal;HPM_P1;HPM_P2
2022/10/23 00:01:42;;;;;;;39.10;35.50;;;;;;;10.44;100.00;98107.35;105796;1317;22340;-85
2022/10/23 00:04:12;;;;;;;41.70;38.10;;;;;;;10.42;100.00;98117.41;105318;1323;22160;-85
2022/10/23 00:06:41;;;;;;;40.10;36.40;;;;;;;10.43;100.00;98121.16;105813;1310;22842;-85
2022/10/23 00:09:11;;;;;;;41.30;37.50;;;;;;;10.41;100.00;98123.67;105586;1311;22088;-85
2022/10/23 00:11:40;;;;;;;40.30;36.30;;;;;;;10.42;100.00;98128.39;105809;1309;22193;-84
2022/10/23 00:14:08;;;;;;;39.30;35.80;;;;;;;10.45;100.00;98125.39;105415;1323;22870;-85
2022/10/23 00:16:36;;;;;;;41.60;37.80;;;;;;;10.45;100.00;98125.81;105778;1299;22080;-84
2022/10/23 00:19:04;;;;;;;42.20;38.30;;;;;;;10.49;100.00;98125.71;105427;1323;22172;-85
2022/10/23 00:21:33;;;;;;;40.80;37.20;;;;;;;10.51;100.00;98120.94;105781;1303;22146;-85
2022/10/23 00:24:01;;;;;;;39.30;35.70;;;;;;;10.47;100.00;98137.80;105396;1324;22116;-85
2022/10/23 00:26:29;;;;;;;39.60;35.90;;;;;;;10.44;100.00;98137.31;105776;1305;22794;-84
2022/10/23 00:28:57;;;;;;;39.90;36.30;;;;;;;10.44;100.00;98137.85;105610;1310;22077;-86
2022/10/23 00:31:25;;;;;;;39.90;35.90;;;;;;;10.45;100.00;98146.30;105388;1323;22109;-85
2022/10/23 00:33:53;;;;;;;41.30;37.60;;;;;;;10.45;100.00;98145.01;105241;1324;22112;-85
2022/10/23 00:36:21;;;;;;;43.20;39.20;;;;;;;10.46;100.00;98145.95;105322;1323;22104;-85
2022/10/23 00:38:50;;;;;;;43.80;39.40;;;;;;;10.44;100.00;98144.64;105429;1324;22992;-85
2022/10/23 00:41:24;;;;;;;42.00;38.10;;;;;;;10.40;100.00;98141.73;105407;1316;22195;-85
2022/10/23 00:44:21;;;;;;;41.60;37.90;;;;;;;10.41;100.00;98141.13;105572;1316;22176;-86
2022/10/23 00:46:49;;;;;;;43.40;39.40;;;;;;;10.43;100.00;98140.93;105313;1308;22876;-85
2022/10/23 00:49:19;;;;;;;40.10;36.30;;;;;;;10.42;100.00;98140.58;105407;1323;22089;-86
2022/10/23 00:52:00;;;;;;;41.70;37.80;;;;;;;10.41;100.00;98143.16;105100;1324;22233;-85
2022/10/23 00:54:33;;;;;;;40.70;36.80;;;;;;;10.41;100.00;98140.48;105627;1302;22172;-85
2022/10/23 00:57:03;;;;;;;40.40;36.70;;;;;;;10.41;100.00;98142.09;105406;1318;22096;-86
2022/10/23 00:59:32;;;;;;;42.60;38.30;;;;;;;10.45;100.00;98142.85;105394;1324;22267;-85
2022/10/23 01:02:00;;;;;;;41.80;37.90;;;;;;;10.45;100.00;98143.27;105294;1323;22107;-85
2022/10/23 01:04:29;;;;;;;42.40;38.30;;;;;;;10.48;100.00;98155.64;105601;1317;22152;-86
2022/10/23 01:07:10;;;;;;;42.70;39.00;;;;;;;10.48;100.00;98144.70;105580;1317;22063;-87
2022/10/23 01:09:45;;;;;;;43.50;39.70;;;;;;;10.48;100.00;98143.19;105799;1316;22080;-86
2022/10/23 01:12:39;;;;;;;45.70;41.60;;;;;;;10.48;100.00;98145.29;105632;1317;22161;-86
2022/10/23 01:15:22;;;;;;;46.10;41.70;;;;;;;10.44;100.00;98145.44;105437;1309;22061;-86
2022/10/23 01:17:57;;;;;;;44.40;40.30;;;;;;;10.43;100.00;98146.69;105268;1324;22129;-85
2022/10/23 01:20:35;;;;;;;43.10;39.30;;;;;;;10.41;100.00;98148.23;105618;1317;22073;-85
2022/10/23 01:23:16;;;;;;;45.00;40.80;;;;;;;10.41;100.00;98141.17;105235;1324;22413;-85
2022/10/23 01:25:56;;;;;;;40.40;36.70;;;;;;;10.40;100.00;98141.56;105634;1317;22197;-85
2022/10/23 01:28:32;;;;;;;40.00;36.40;;;;;;;10.43;100.00;98146.73;105648;1317;22139;-85
2022/10/23 01:31:07;;;;;;;41.10;37.30;;;;;;;10.43;100.00;98146.43;105624;1317;22138;-84
2022/10/23 01:33:41;;;;;;;36.50;33.20;;;;;;;10.45;100.00;98148.83;105802;1300;22183;-85
2022/10/23 01:36:13;;;;;;;39.40;35.80;;;;;;;10.45;100.00;98151.41;105815;1306;22147;-85
2022/10/23 01:38:55;;;;;;;41.90;38.10;;;;;;;10.47;100.00;98155.43;105628;1312;22925;-85
2022/10/23 01:41:45;;;;;;;43.60;39.50;;;;;;;10.50;100.00;98155.06;105265;1324;22105;-85
2022/10/23 01:44:32;;;;;;;43.20;39.00;;;;;;;10.52;100.00;98157.29;105275;1324;22072;-85
2022/10/23 01:47:02;;;;;;;41.80;37.70;;;;;;;10.53;100.00;98159.08;105643;1316;22210;-85
2022/10/23 01:49:38;;;;;;;45.00;40.70;;;;;;;10.49;100.00;98163.42;105102;1321;22189;-85
2022/10/23 01:52:11;;;;;;;39.90;36.30;;;;;;;10.47;100.00;98167.61;105020;1324;23431;-85
2022/10/23 01:54:46;;;;;;;40.90;37.10;;;;;;;10.46;100.00;98172.19;105577;1309;22924;-86
2022/10/23 01:57:19;;;;;;;37.60;34.00;;;;;;;10.47;100.00;98170.69;105845;1308;22065;-85
2022/10/23 01:59:52;;;;;;;40.30;36.30;;;;;;;10.50;100.00;98170.74;105665;1316;22894;-86
2022/10/23 02:02:23;;;;;;;38.10;34.40;;;;;;;10.51;100.00;98169.86;105561;1312;22788;-86
2022/10/23 02:05:01;;;;;;;38.90;35.30;;;;;;;10.55;100.00;98166.52;104987;1324;22312;-86
2022/10/23 02:07:29;;;;;;;40.30;36.30;;;;;;;10.57;100.00;98165.74;105085;1324;22219;-85
2022/10/23 02:09:57;;;;;;;40.70;37.00;;;;;;;10.59;100.00;98164.79;105824;1298;22191;-86
2022/10/23 02:12:40;;;;;;;40.10;36.40;;;;;;;10.61;100.00;98165.58;105319;1322;22204;-86
2022/10/23 02:15:24;;;;;;;39.90;36.20;;;;;;;10.62;100.00;98164.32;105649;1317;22164;-86
2022/10/23 02:18:23;;;;;;;42.90;38.70;;;;;;;10.62;100.00;98165.13;105331;1324;22229;-85
2022/10/23 02:20:59;;;;;;;40.70;37.00;;;;;;;10.61;100.00;98168.44;105638;1317;22069;-85
2022/10/23 02:23:34;;;;;;;38.60;35.00;;;;;;;10.60;100.00;98167.80;105059;1324;22189;-85
2022/10/23 02:26:27;;;;;;;38.50;35.10;;;;;;;10.60;100.00;98169.24;105292;1324;22156;-85
2022/10/23 02:29:31;;;;;;;40.00;36.30;;;;;;;10.59;100.00;98166.84;105643;1295;22713;-86
2022/10/23 02:32:00;;;;;;;39.20;35.90;;;;;;;10.53;100.00;98167.57;105497;1322;22184;-84
2022/10/23 02:34:28;;;;;;;36.30;33.20;;;;;;;10.47;100.00;98171.32;105317;1324;22173;-85
2022/10/23 02:36:56;;;;;;;36.60;33.50;;;;;;;10.44;100.00;98178.80;105720;1312;22175;-84
2022/10/23 02:39:26;;;;;;;36.00;32.90;;;;;;;10.42;100.00;98181.73;105382;1324;22105;-85
2022/10/23 02:42:00;;;;;;;36.30;33.00;;;;;;;10.42;100.00;98179.95;105316;1324;22235;-85
2022/10/23 02:44:43;;;;;;;36.40;33.20;;;;;;;10.40;100.00;98181.27;105633;1317;21916;-86
2022/10/23 02:47:17;;;;;;;37.30;33.80;;;;;;;10.36;100.00;98189.94;105291;1324;22209;-87
2022/10/23 02:50:23;;;;;;;34.90;31.80;;;;;;;10.32;100.00;98193.61;105402;1322;22093;-87
2022/10/23 02:53:17;;;;;;;34.50;31.00;;;;;;;10.30;100.00;98186.64;105524;1317;22059;-87
2022/10/23 02:56:13;;;;;;;32.60;29.90;;;;;;;10.29;100.00;98186.33;105522;1317;22200;-87
2022/10/23 02:58:55;;;;;;;35.00;31.80;;;;;;;10.28;100.00;98188.45;105604;1317;22081;-86
2022/10/23 03:01:27;;;;;;;31.50;28.70;;;;;;;10.28;100.00;98192.05;105583;1312;22830;-86
2022/10/23 03:03:58;;;;;;;32.70;29.60;;;;;;;10.27;100.00;98196.33;105650;1315;22060;-86
2022/10/23 03:06:26;;;;;;;33.50;30.50;;;;;;;10.27;100.00;98203.33;105374;1319;22104;-87
2022/10/23 03:08:58;;;;;;;32.60;29.50;;;;;;;10.28;100.00;98203.27;105322;1324;22669;-86
2022/10/23 03:11:26;;;;;;;31.90;28.80;;;;;;;10.28;100.00;98202.06;105590;1317;22078;-87
2022/10/23 03:13:55;;;;;;;31.90;28.70;;;;;;;10.26;100.00;98202.09;105282;1324;22099;-87
2022/10/23 03:16:24;;;;;;;31.50;28.50;;;;;;;10.25;100.00;98205.69;105600;1317;22062;-87
2022/10/23 03:18:54;;;;;;;30.80;28.00;;;;;;;10.23;100.00;98206.35;105479;1317;22103;-86
2022/10/23 03:21:22;;;;;;;31.40;28.50;;;;;;;10.20;100.00;98201.77;105637;1308;22092;-86
2022/10/23 03:23:52;;;;;;;31.10;28.30;;;;;;;10.19;100.00;98200.60;105297;1324;22213;-86
2022/10/23 03:26:27;;;;;;;34.80;31.60;;;;;;;10.19;100.00;98200.38;105331;1316;22207;-86
2022/10/23 03:28:55;;;;;;;34.30;31.30;;;;;;;10.20;100.00;98201.98;105636;1317;22089;-86
2022/10/23 03:31:23;;;;;;;40.80;32.00;;;;;;;10.22;100.00;98201.13;105275;1324;22105;-86
2022/10/23 03:33:54;;;;;;;34.00;30.80;;;;;;;10.27;100.00;98198.84;105032;1324;22735;-86
2022/10/23 03:36:22;;;;;;;35.20;32.00;;;;;;;10.31;100.00;98200.15;105658;1316;22157;-85
2022/10/23 03:38:51;;;;;;;34.30;31.30;;;;;;;10.34;100.00;98201.61;105617;1317;22729;-85
2022/10/23 03:41:20;;;;;;;33.30;30.50;;;;;;;10.36;100.00;98210.38;105553;1317;22191;-86
2022/10/23 03:43:48;;;;;;;36.00;32.70;;;;;;;10.38;100.00;98206.73;105401;1324;22842;-85
2022/10/23 03:46:16;;;;;;;35.50;32.20;;;;;;;10.36;100.00;98201.05;105615;1315;22056;-86
2022/10/23 03:48:44;;;;;;;31.80;29.00;;;;;;;10.37;100.00;98200.23;105615;1294;22199;-85
2022/10/23 03:51:12;;;;;;;32.30;29.20;;;;;;;10.39;100.00;98203.66;105561;1316;22069;-85
2022/10/23 03:53:40;;;;;;;32.00;28.70;;;;;;;10.39;100.00;98204.46;105405;1323;22217;-85
2022/10/23 03:56:08;;;;;;;31.30;28.50;;;;;;;10.38;100.00;98208.68;105794;1307;22059;-85
2022/10/23 03:58:36;;;;;;;28.30;25.70;;;;;;;10.38;100.00;98203.61;105760;1317;22184;-85
2022/10/23 04:01:04;;;;;;;31.60;28.80;;;;;;;10.37;100.00;98201.84;105587;1317;22193;-84
2022/10/23 04:03:32;;;;;;;33.30;30.30;;;;;;;10.38;100.00;98201.95;105402;1324;22175;-85
2022/10/23 04:05:59;;;;;;;31.50;28.70;;;;;;;10.41;100.00;98206.80;105631;1315;22228;-85
2022/10/23 04:08:27;;;;;;;32.10;29.10;;;;;;;10.43;100.00;98217.39;104980;1324;22193;-86
2022/10/23 04:10:55;;;;;;;33.60;30.60;;;;;;;10.43;100.00;98219.55;105304;1324;22873;-86
2022/10/23 04:13:31;;;;;;;36.10;33.00;;;;;;;10.39;100.00;98221.86;105290;1324;22210;-85
2022/10/23 04:15:59;;;;;;;32.60;29.70;;;;;;;10.40;100.00;98221.20;105613;1309;22175;-85
2022/10/23 04:18:27;;;;;;;31.30;28.50;;;;;;;10.41;100.00;98217.20;105600;1312;22195;-85
2022/10/23 04:20:55;;;;;;;31.40;28.70;;;;;;;10.38;100.00;98214.02;105643;1302;22793;-86
2022/10/23 04:23:23;;;;;;;31.40;28.10;;;;;;;10.38;100.00;98210.45;105629;1315;22212;-86
2022/10/23 04:25:55;;;;;;;32.00;29.30;;;;;;;10.40;100.00;98205.52;105279;1324;22104;-85
2022/10/23 04:28:25;;;;;;;31.40;28.70;;;;;;;10.38;100.00;98207.80;105644;1312;22185;-86
2022/10/23 04:30:53;;;;;;;30.90;28.20;;;;;;;10.38;100.00;98204.69;105283;1319;22105;-85
2022/10/23 04:33:21;;;;;;;30.50;27.80;;;;;;;10.36;100.00;98201.21;105203;1310;22088;-85
2022/10/23 04:35:51;;;;;;;29.40;26.70;;;;;;;10.39;100.00;98196.05;104968;1324;22216;-86
2022/10/23 04:38:19;;;;;;;28.70;26.30;;;;;;;10.42;100.00;98197.27;105063;1324;22125;-85
2022/10/23 04:40:47;;;;;;;28.80;26.20;;;;;;;10.42;100.00;98198.02;105377;1323;22857;-87
2022/10/23 04:43:19;;;;;;;31.60;28.60;;;;;;;10.46;100.00;98195.48;105669;1317;22156;-86
2022/10/23 04:45:48;;;;;;;35.30;26.80;;;;;;;10.49;100.00;98193.83;105746;1317;22167;-87
2022/10/23 04:48:16;;;;;;;30.30;27.70;;;;;;;10.52;100.00;98191.61;105735;1316;22087;-86
2022/10/23 04:51:04;;;;;;;31.90;29.10;;;;;;;10.54;100.00;98196.20;105767;1317;22178;-85
2022/10/23 04:53:59;;;;;;;27.70;25.10;;;;;;;10.59;100.00;98199.12;105134;1323;22190;-85
2022/10/23 04:56:46;;;;;;;27.40;25.00;;;;;;;10.64;100.00;98200.55;105596;1317;22158;-86
2022/10/23 04:59:18;;;;;;;27.60;25.30;;;;;;;10.68;100.00;98199.42;105626;1316;22155;-85
2022/10/23 05:01:46;;;;;;;29.20;26.60;;;;;;;10.73;100.00;98200.59;105629;1302;22183;-85
2022/10/23 05:04:15;;;;;;;28.20;25.80;;;;;;;10.75;100.00;98200.89;105269;1323;22305;-84
2022/10/23 05:07:02;;;;;;;29.50;26.90;;;;;;;10.73;100.00;98199.37;105359;1323;22117;-85
2022/10/23 05:09:39;;;;;;;29.30;24.80;;;;;;;10.72;100.00;98198.52;105658;1316;22947;-86
2022/10/23 05:12:24;;;;;;;26.80;24.30;;;;;;;10.72;100.00;98195.60;105612;1307;22123;-85
2022/10/23 05:14:53;;;;;;;26.40;24.00;;;;;;;10.75;100.00;98189.24;105331;1323;22065;-85
2022/10/23 05:17:28;;;;;;;26.10;23.70;;;;;;;10.80;100.00;98188.95;105090;1324;22148;-85
2022/10/23 05:19:58;;;;;;;26.30;24.00;;;;;;;10.84;100.00;98185.92;105275;1324;22090;-86
2022/10/23 05:22:31;;;;;;;27.80;25.10;;;;;;;10.86;100.00;98186.11;105299;1323;22205;-88
2022/10/23 05:25:01;;;;;;;27.10;24.60;;;;;;;10.85;100.00;98185.32;105058;1323;22201;-87
2022/10/23 05:27:31;;;;;;;31.60;28.60;;;;;;;10.83;100.00;98184.05;105603;1317;22084;-87
2022/10/23 05:29:59;;;;;;;26.20;23.70;;;;;;;10.87;100.00;98187.56;105806;1316;22138;-85
2022/10/23 05:32:31;;;;;;;27.20;24.70;;;;;;;10.89;100.00;98193.62;105816;1317;22193;-87
2022/10/23 05:35:01;;;;;;;28.90;26.40;;;;;;;10.86;100.00;98185.63;105645;1316;22748;-86
2022/10/23 05:37:30;;;;;;;27.00;24.50;;;;;;;10.86;100.00;98187.20;105656;1309;22906;-86
2022/10/23 05:40:12;;;;;;;28.60;25.90;;;;;;;10.87;100.00;98189.32;105603;1317;22194;-86
2022/10/23 05:42:42;;;;;;;27.10;24.60;;;;;;;10.93;100.00;98190.91;105642;1317;22141;-86
2022/10/23 05:45:13;;;;;;;24.80;22.70;;;;;;;10.97;100.00;98192.16;105315;1324;22749;-85
2022/10/23 05:47:59;;;;;;;26.50;24.10;;;;;;;11.00;100.00;98191.61;105649;1317;22189;-85
2022/10/23 05:51:08;;;;;;;29.40;26.60;;;;;;;11.01;100.00;98195.69;105791;1305;22099;-85
2022/10/23 05:53:48;;;;;;;28.40;25.70;;;;;;;11.02;100.00;98198.32;105638;1302;22066;-86
2022/10/23 05:56:27;;;;;;;25.10;22.80;;;;;;;11.06;100.00;98200.09;105062;1324;22829;-85
2022/10/23 05:59:06;;;;;;;25.60;23.00;;;;;;;11.08;100.00;98198.70;105792;1317;22677;-88
2022/10/23 06:01:48;;;;;;;25.50;23.30;;;;;;;11.10;100.00;98201.43;105628;1317;22083;-85
2022/10/23 06:04:22;;;;;;;26.50;24.00;;;;;;;11.12;100.00;98202.91;105314;1324;21982;-86
2022/10/23 06:07:16;;;;;;;26.80;24.00;;;;;;;11.13;100.00;98210.40;105161;1323;22180;-86
2022/10/23 06:09:46;;;;;;;25.10;22.80;;;;;;;11.13;100.00;98214.01;105608;1317;22280;-87
2022/10/23 06:12:15;;;;;;;23.60;21.60;;;;;;;11.15;100.00;98220.17;105791;1306;22257;-85
2022/10/23 06:14:44;;;;;;;25.50;23.10;;;;;;;11.17;100.00;98227.05;105479;1317;22247;-87
2022/10/23 06:17:12;;;;;;;24.90;22.70;;;;;;;11.19;100.00;98230.85;105056;1324;22190;-85
2022/10/23 06:19:44;;;;;;;27.00;24.50;;;;;;;11.16;100.00;98236.13;105314;1323;22072;-85
2022/10/23 06:22:13;;;;;;;26.40;24.00;;;;;;;11.14;100.00;98241.54;104997;1324;22132;-84
2022/10/23 06:24:51;;;;;;;25.10;23.00;;;;;;;11.15;100.00;98246.88;105161;1324;22971;-84
2022/10/23 06:27:23;;;;;;;28.40;25.90;;;;;;;11.14;100.00;98247.44;105515;1310;22124;-85
2022/10/23 06:29:53;;;;;;;27.30;24.80;;;;;;;11.11;100.00;98256.11;105851;1301;22106;-83
2022/10/23 06:32:21;;;;;;;29.10;26.50;;;;;;;11.07;100.00;98256.70;105625;1317;22165;-83
2022/10/23 06:35:06;;;;;;;29.30;26.60;;;;;;;11.06;100.00;98262.22;105663;1311;22084;-85
2022/10/23 06:37:35;;;;;;;28.80;26.20;;;;;;;11.04;100.00;98262.48;105312;1321;22077;-84
2022/10/23 06:40:17;;;;;;;27.00;24.30;;;;;;;11.03;100.00;98265.23;105307;1324;22128;-86
2022/10/23 06:43:14;;;;;;;30.00;26.80;;;;;;;10.99;100.00;98269.23;105252;1324;22108;-86
2022/10/23 06:46:09;;;;;;;28.90;26.30;;;;;;;10.89;100.00;98276.00;105640;1316;22151;-86
2022/10/23 06:48:57;;;;;;;28.40;25.70;;;;;;;10.82;100.00;98275.29;105395;1316;22485;-85
2022/10/23 06:51:29;;;;;;;26.70;24.30;;;;;;;10.76;100.00;98275.42;105641;1317;22296;-85
2022/10/23 06:53:57;;;;;;;30.10;27.50;;;;;;;10.71;100.00;98271.88;105055;1323;22184;-86
2022/10/23 06:56:43;;;;;;;29.00;26.50;;;;;;;10.69;100.00;98274.06;105395;1323;22192;-87
2022/10/23 06:59:14;;;;;;;27.10;24.60;;;;;;;10.70;100.00;98269.79;105632;1308;22923;-87
2022/10/23 07:01:43;;;;;;;29.60;26.60;;;;;;;10.70;100.00;98272.55;105311;1324;22600;-86
2022/10/23 07:04:14;;;;;;;30.40;27.20;;;;;;;10.67;100.00;98280.65;104918;1322;22120;-86
2022/10/23 07:06:42;;;;;;;30.40;27.50;;;;;;;10.68;100.00;98277.91;105602;1316;22161;-86
2022/10/23 07:09:10;;;;;;;30.10;27.20;;;;;;;10.71;100.00;98281.48;105380;1323;22220;-88
2022/10/23 07:11:53;;;;;;;26.80;24.20;;;;;;;10.77;100.00;98273.59;105806;1298;22095;-87
2022/10/23 07:14:30;;;;;;;28.30;25.70;;;;;;;10.82;100.00;98271.14;105315;1324;22105;-89
2022/10/23 07:17:55;;;;;;;28.20;25.50;;;;;;;10.89;100.00;98276.16;105820;1315;23002;-87
2022/10/23 07:20:24;;;;;;;30.50;27.50;;;;;;;10.93;100.00;98274.39;105680;1316;22057;-86
2022/10/23 07:22:55;;;;;;;33.40;29.60;;;;;;;10.99;100.00;98269.66;105659;1308;22091;-86
2022/10/23 07:25:28;;;;;;;32.40;29.60;;;;;;;11.07;100.00;98267.17;105080;1324;22091;-86
2022/10/23 07:27:57;;;;;;;34.20;30.90;;;;;;;11.15;100.00;98273.09;105246;1324;22143;-87
2022/10/23 07:30:25;;;;;;;30.30;27.50;;;;;;;11.22;100.00;98277.99;105779;1317;22276;-86
2022/10/23 07:32:54;;;;;;;31.30;28.40;;;;;;;11.29;100.00;98282.73;105655;1316;22230;-87
2022/10/23 07:35:29;;;;;;;31.60;28.60;;;;;;;11.36;100.00;98289.59;105393;1309;22210;-86
2022/10/23 07:38:07;;;;;;;33.30;30.10;;;;;;;11.37;100.00;98284.73;105645;1312;22106;-91
2022/10/23 07:40:41;;;;;;;32.80;29.50;;;;;;;11.35;100.00;98286.32;105651;1315;22086;-86
2022/10/23 07:43:10;;;;;;;34.40;31.20;;;;;;;11.33;100.00;98285.83;105393;1319;23033;-87
2022/10/23 07:45:38;;;;;;;32.30;29.10;;;;;;;11.34;100.00;98290.33;105662;1309;22843;-88
2022/10/23 07:48:13;;;;;;;32.90;29.60;;;;;;;11.34;100.00;98296.74;105646;1316;22048;-87
2022/10/23 07:51:06;;;;;;;33.80;30.40;;;;;;;11.30;100.00;98282.89;105380;1323;22232;-87
2022/10/23 07:53:37;;;;;;;33.50;29.70;;;;;;;11.34;100.00;98273.11;105648;1302;22080;-87
2022/10/23 07:56:28;;;;;;;32.20;28.70;;;;;;;11.42;100.00;98273.27;105293;1323;22111;-87
2022/10/23 07:59:22;;;;;;;31.00;28.20;;;;;;;11.50;100.00;98271.14;105541;1317;22072;-84
2022/10/23 08:01:55;;;;;;;30.10;27.30;;;;;;;11.55;100.00;98270.36;105410;1318;22077;-87
2022/10/23 08:04:28;;;;;;;30.50;27.40;;;;;;;11.60;100.00;98271.92;105000;1324;22180;-84
2022/10/23 08:07:00;;;;;;;33.20;30.10;;;;;;;11.66;100.00;98268.77;105702;1315;22963;-87
2022/10/23 08:09:30;;;;;;;33.80;30.60;;;;;;;11.77;100.00;98267.75;105388;1318;22236;-87
2022/10/23 08:11:58;;;;;;;31.20;28.20;;;;;;;11.92;100.00;98269.08;105711;1316;22140;-89
2022/10/23 08:14:29;;;;;;;31.50;28.40;;;;;;;12.04;100.00;98272.27;105488;1324;22092;-87
2022/10/23 08:16:57;;;;;;;32.40;29.40;;;;;;;12.08;100.00;98278.09;105375;1309;22186;-87
2022/10/23 08:19:55;;;;;;;33.30;30.20;;;;;;;12.04;100.00;98284.43;105214;1316;22086;-88
2022/10/23 08:22:24;;;;;;;41.00;28.80;;;;;;;12.00;100.00;98289.36;105163;1324;22231;-86
2022/10/23 08:24:52;;;;;;;58.70;30.00;;;;;;;12.02;100.00;98288.44;105282;1324;22196;-84
2022/10/23 08:27:20;;;;;;;32.90;27.90;;;;;;;12.11;100.00;98285.05;105384;1324;22164;-87
2022/10/23 08:29:49;;;;;;;30.30;27.50;;;;;;;12.15;100.00;98285.67;105679;1317;22231;-84
2022/10/23 08:32:17;;;;;;;31.40;28.40;;;;;;;12.08;100.00;98285.11;105828;1302;22069;-88
2022/10/23 08:34:53;;;;;;;48.30;29.70;;;;;;;12.00;100.00;98288.31;105722;1316;22087;-86
2022/10/23 08:37:23;;;;;;;29.60;26.90;;;;;;;12.00;100.00;98286.82;105353;1323;22139;-86
2022/10/23 08:39:53;;;;;;;30.10;27.40;;;;;;;12.02;100.00;98289.16;105111;1324;22112;-84
2022/10/23 08:42:42;;;;;;;29.70;26.80;;;;;;;12.02;100.00;98297.04;105610;1305;22113;-83
2022/10/23 08:45:25;;;;;;;38.30;28.00;;;;;;;12.05;100.00;98295.31;105269;1324;22198;-85
2022/10/23 08:48:15;;;;;;;28.90;26.20;;;;;;;12.16;100.00;98299.48;105351;1324;22106;-86
2022/10/23 08:51:28;;;;;;;75.20;29.10;;;;;;;12.27;100.00;98298.94;105488;1323;22204;-88
2022/10/23 08:54:14;;;;;;;46.90;25.90;;;;;;;12.33;100.00;98306.23;105933;1309;22044;-86
2022/10/23 08:56:48;;;;;;;32.60;27.10;;;;;;;12.34;100.00;98304.94;105429;1324;22129;-84
2022/10/23 08:59:33;;;;;;;46.50;28.40;;;;;;;12.34;100.00;98303.80;105906;1316;22074;-84
2022/10/23 09:02:04;;;;;;;;;;;;;;;12.40;100.00;98305.20;105403;1318;22985;-87
2022/10/23 09:04:33;;;;;;;27.70;25.20;;;;;;;12.47;100.00;98307.31;105988;1302;22078;-86
2022/10/23 09:07:01;;;;;;;26.60;24.10;;;;;;;12.49;99.98;98303.27;105946;1316;22201;-85
2022/10/23 09:09:46;;;;;;;29.10;25.60;;;;;;;12.54;100.00;98297.19;105743;1310;22217;-86
2022/10/23 09:12:19;;;;;;;28.60;26.00;;;;;;;12.61;99.98;98305.21;105537;1321;22923;-84
2022/10/23 09:15:05;;;;;;;29.30;26.20;;;;;;;12.66;99.54;98309.44;105775;1301;23066;-86
2022/10/23 09:17:37;;;;;;;39.70;35.90;;;;;;;12.69;99.51;98309.09;105550;1324;22783;-87
2022/10/23 09:20:23;;;;;;;36.60;33.30;;;;;;;12.74;99.14;98309.27;105486;1318;22107;-89
2022/10/23 09:22:58;;;;;;;33.50;30.30;;;;;;;12.77;99.12;98306.50;105484;1324;22135;-85
2022/10/23 09:25:36;;;;;;;28.60;25.60;;;;;;;12.85;99.69;98314.88;105851;1313;22086;-87
2022/10/23 09:28:04;;;;;;;25.90;23.30;;;;;;;12.97;99.65;98309.30;105385;1318;22107;-86
2022/10/23 09:30:36;;;;;;;26.80;24.40;;;;;;;13.10;99.07;98307.06;105876;1300;22707;-86
2022/10/23 09:33:18;;;;;;;25.40;22.80;;;;;;;13.28;99.11;98302.63;105367;1323;22094;-84
2022/10/23 09:35:57;;;;;;;27.90;25.20;;;;;;;13.33;96.40;98305.05;105907;1316;22099;-85
2022/10/23 09:38:35;;;;;;;25.00;22.60;;;;;;;13.30;96.92;98304.02;105888;1306;22807;-85
2022/10/23 09:41:18;;;;;;;25.30;22.90;;;;;;;13.38;97.70;98302.58;105585;1324;22134;-84
2022/10/23 09:43:46;;;;;;;21.70;19.50;;;;;;;13.60;96.56;98306.69;105711;1301;22929;-84
2022/10/23 09:46:23;;;;;;;24.20;21.90;;;;;;;13.63;96.28;98300.65;105670;1317;22164;-85
2022/10/23 09:48:57;;;;;;;23.50;21.40;;;;;;;13.71;96.39;98300.31;105893;1315;22175;-84
2022/10/23 09:51:30;;;;;;;35.10;21.10;;;;;;;13.82;96.36;98303.98;105475;1324;22196;-85
2022/10/23 09:53:59;;;;;;;29.10;20.90;;;;;;;13.99;96.87;98305.13;105385;1324;22230;-86
2022/10/23 09:56:32;;;;;;;30.40;18.90;;;;;;;14.17;96.72;98303.01;105817;1316;22049;-85
2022/10/23 09:59:00;;;;;;;32.00;22.60;;;;;;;14.34;94.62;98305.86;105394;1323;22673;-84
2022/10/23 10:01:32;;;;;;;23.30;21.10;;;;;;;14.40;95.23;98305.98;105427;1316;22460;-85
2022/10/23 10:04:16;;;;;;;24.20;21.60;;;;;;;14.52;94.07;98311.63;105736;1316;22189;-84
2022/10/23 10:06:44;;;;;;;23.10;20.80;;;;;;;14.52;92.99;98317.70;105030;1327;156491;-84
2022/10/23 10:09:15;;;;;;;20.40;18.50;;;;;;;14.47;91.79;98315.27;105461;1323;22358;-84
2022/10/23 10:11:49;;;;;;;21.30;19.10;;;;;;;14.40;91.08;98305.70;105688;1316;22132;-84
2022/10/23 10:14:44;;;;;;;21.80;19.30;;;;;;;14.33;91.12;98302.64;105507;1323;22005;-85
2022/10/23 10:17:12;;;;;;;21.60;19.40;;;;;;;14.24;90.06;98305.98;105527;1323;22170;-84
2022/10/23 10:19:57;;;;;;;20.20;18.10;;;;;;;14.19;90.42;98310.14;105474;1325;22192;-84
2022/10/23 10:22:55;;;;;;;21.50;19.30;;;;;;;14.18;90.70;98306.54;105475;1323;22104;-85
2022/10/23 10:25:31;;;;;;;19.80;17.40;;;;;;;14.20;89.99;98299.09;105436;1322;22100;-85
2022/10/23 10:28:28;;;;;;;18.00;15.80;;;;;;;14.24;90.24;98291.56;105857;1316;22104;-84
2022/10/23 10:31:31;;;;;;;18.90;16.20;;;;;;;14.48;90.70;98290.89;105691;1311;22821;-86
2022/10/23 10:34:05;;;;;;;20.50;18.40;;;;;;;14.77;89.96;98279.77;105477;1323;22185;-86
2022/10/23 10:36:36;;;;;;;20.90;18.80;;;;;;;14.84;87.90;98283.70;105889;1314;22171;-84
2022/10/23 10:39:15;;;;;;;21.20;19.00;;;;;;;14.84;88.49;98277.77;105294;1324;22221;-86
2022/10/23 10:42:11;;;;;;;22.00;19.90;;;;;;;14.95;88.91;98273.56;105816;1305;22061;-85
2022/10/23 10:45:13;;;;;;;19.80;17.30;;;;;;;15.08;87.22;98272.54;105398;1327;22085;-85
2022/10/23 10:48:18;;;;;;;19.00;17.30;;;;;;;15.13;87.91;98264.59;105820;1307;22078;-85
2022/10/23 10:51:36;;;;;;;15.70;14.20;;;;;;;15.36;87.37;98262.13;105188;1321;22093;-85
2022/10/23 10:54:06;;;;;;;14.60;13.10;;;;;;;15.40;85.52;98262.09;105416;1314;22175;-84
2022/10/23 11:00:30;;;;;;;14.40;12.50;;;;;;;15.70;85.42;98244.76;105850;1316;22056;-84
2022/10/23 11:03:35;;;;;;;12.80;11.60;;;;;;;15.79;84.57;98238.64;105398;1323;22087;-84
2022/10/23 11:06:13;;;;;;;13.30;11.80;;;;;;;15.91;83.47;98237.27;105304;1325;22858;-83
2022/10/23 11:08:41;;;;;;;14.90;12.10;;;;;;;15.94;83.64;98237.15;105685;1316;22108;-85
2022/10/23 11:16:22;;;;;;;12.70;11.40;;;;;;;16.17;82.07;98227.44;105434;1309;22109;-85
2022/10/23 11:19:03;;;;;;;14.10;12.20;;;;;;;16.21;81.78;98220.24;105566;1308;22100;-85
2022/10/23 11:21:39;;;;;;;12.80;10.60;;;;;;;16.28;80.83;98217.17;105831;1306;22086;-86
2022/10/23 11:28:22;;;;;;;14.70;13.20;;;;;;;16.65;81.64;98215.64;105813;1306;22227;-83
2022/10/23 11:31:24;;;;;;;14.20;11.60;;;;;;;16.77;78.90;98210.73;105980;1316;22193;-85
2022/10/23 11:34:09;;;;;;;11.80;9.20;;;;;;;16.86;77.80;98211.30;105604;1300;22155;-84
2022/10/23 11:36:45;;;;;;;11.80;10.40;;;;;;;16.90;78.57;98205.84;105654;1328;22130;-84
2022/10/23 11:39:32;;;;;;;11.40;10.20;;;;;;;16.98;77.39;98204.31;105942;1306;23046;-85
2022/10/23 11:42:04;;;;;;;10.70;9.40;;;;;;;17.01;77.23;98201.59;105733;1316;22080;-85
2022/10/23 11:44:43;;;;;;;11.20;9.50;;;;;;;16.98;75.82;98200.23;105364;1324;22076;-86
2022/10/23 11:47:35;;;;;;;10.30;9.30;;;;;;;16.91;74.97;98198.45;105339;1324;22095;-86
2022/10/23 11:50:06;;;;;;;11.60;10.20;;;;;;;16.91;75.32;98187.45;105819;1316;22174;-86
2022/10/23 11:52:55;;;;;;;14.40;9.60;;;;;;;16.93;75.43;98184.20;105406;1323;22225;-84
2022/10/23 11:55:56;;;;;;;10.40;9.30;;;;;;;16.96;76.48;98182.39;105517;1324;22138;-83
2022/10/23 11:58:30;;;;;;;10.10;9.10;;;;;;;16.90;74.58;98182.60;105473;1318;22186;-85